createdAt,value
2019-05-17T00:00:39.332Z,19.33
2019-05-17T00:03:09.322Z,15.67
2019-05-17T00:08:40.294Z,16.67
2019-05-17T00:14:33.682Z,17.33
2019-05-17T00:17:06.631Z,14.67
2019-05-17T00:19:37.159Z,17.67
2019-05-17T00:22:07.536Z,19.00
2019-05-17T00:24:39.983Z,19.00
2019-05-17T00:27:41.466Z,16.67
2019-05-17T00:30:01.727Z,15.33
2019-05-17T00:32:31.689Z,21.00
2019-05-17T00:35:01.822Z,18.00
2019-05-17T00:37:50.534Z,15.00
2019-05-17T00:43:22.972Z,17.33
2019-05-17T00:46:03.615Z,15.67
2019-05-17T00:48:37.222Z,21.00
2019-05-17T00:51:09.921Z,18.33
2019-05-17T00:53:40.637Z,15.00
2019-05-17T00:56:29.712Z,19.67
2019-05-17T00:59:02.181Z,18.00
2019-05-17T01:01:51.150Z,18.67
2019-05-17T01:04:40.241Z,17.33
2019-05-17T01:07:28.890Z,17.67
2019-05-17T01:09:58.974Z,16.67
2019-05-17T01:12:51.725Z,19.33
2019-05-17T01:15:40.783Z,21.33
2019-05-17T01:18:12.742Z,18.33
2019-05-17T01:20:51.827Z,16.67
2019-05-17T01:23:43.515Z,17.33
2019-05-17T01:26:13.526Z,23.67
2019-05-17T01:28:46.750Z,19.00
2019-05-17T01:31:17.928Z,21.67
2019-05-17T01:34:07.483Z,20.67
2019-05-17T01:36:39.490Z,18.00
2019-05-17T01:39:17.706Z,16.67
2019-05-17T01:41:42.088Z,19.00
2019-05-17T01:44:12.153Z,18.00
2019-05-17T01:46:42.247Z,15.67
2019-05-17T01:49:13.117Z,19.00
2019-05-17T01:51:43.247Z,20.00
2019-05-17T01:54:13.264Z,18.67
2019-05-17T01:56:43.306Z,17.67
2019-05-17T02:02:26.900Z,16.67
2019-05-17T02:04:56.940Z,22.67
2019-05-17T02:07:28.105Z,23.00
2019-05-17T02:10:16.731Z,16.33
2019-05-17T02:12:33.595Z,18.00
2019-05-17T02:15:03.667Z,20.33
2019-05-17T02:17:33.505Z,20.00
2019-05-17T02:20:03.534Z,20.33
2019-05-17T02:22:33.433Z,19.33
2019-05-17T02:25:03.731Z,21.00
2019-05-17T02:33:43.227Z,19.33
2019-05-17T02:36:14.208Z,22.33
2019-05-17T02:38:55.393Z,16.00
2019-05-17T02:41:27.941Z,19.67
2019-05-17T02:43:57.765Z,18.67
2019-05-17T02:46:27.537Z,19.33
2019-05-17T02:48:57.277Z,18.00
2019-05-17T02:52:06.572Z,21.00
2019-05-17T02:54:38.943Z,21.33
2019-05-17T02:57:08.843Z,20.67
2019-05-17T03:02:29.019Z,17.00
2019-05-17T03:05:17.857Z,19.33
2019-05-17T03:10:29.433Z,16.33
2019-05-17T03:12:59.257Z,20.00
2019-05-17T03:15:32.191Z,16.33
2019-05-17T03:18:03.647Z,20.67
2019-05-17T03:20:36.019Z,19.00
2019-05-17T03:23:06.193Z,18.33
2019-05-17T03:25:35.991Z,17.33
2019-05-17T03:28:06.740Z,14.80
2019-05-17T03:30:37.707Z,19.33
2019-05-17T03:33:09.105Z,16.67
2019-05-17T03:35:45.198Z,18.00
2019-05-17T03:38:14.128Z,19.33
2019-05-17T03:43:14.491Z,17.67
2019-05-17T03:46:03.335Z,15.00
2019-05-17T03:48:33.582Z,22.67
2019-05-17T03:51:07.361Z,16.33
2019-05-17T03:54:32.387Z,19.33
2019-05-17T03:59:52.603Z,17.33
2019-05-17T04:02:24.016Z,19.33
2019-05-17T04:05:14.768Z,17.00
2019-05-17T04:07:44.922Z,15.33
2019-05-17T04:12:59.433Z,21.33
2019-05-17T04:15:32.642Z,17.67
2019-05-17T04:18:23.204Z,18.33
2019-05-17T04:21:12.553Z,19.67
2019-05-17T04:23:42.916Z,22.67
2019-05-17T04:26:27.552Z,19.33
2019-05-17T04:28:56.794Z,20.33
2019-05-17T04:31:30.478Z,17.33
2019-05-17T04:33:58.308Z,21.00
2019-05-17T04:36:47.263Z,22.00
2019-05-17T04:39:36.134Z,20.67
2019-05-17T04:48:43.528Z,15.67
2019-05-17T04:52:06.202Z,17.67
2019-05-17T04:54:49.052Z,27.33
2019-05-17T05:00:34.142Z,20.00
2019-05-17T05:03:04.081Z,18.67
2019-05-17T05:05:46.913Z,21.00
2019-05-17T05:08:28.882Z,22.67
2019-05-17T05:10:58.818Z,17.67
2019-05-17T05:13:28.636Z,19.67
2019-05-17T05:15:58.468Z,20.67
2019-05-17T05:18:52.085Z,21.00
2019-05-17T05:24:31.484Z,17.33
2019-05-17T05:27:02.569Z,19.33
2019-05-17T05:29:34.897Z,20.33
2019-05-17T05:32:04.789Z,22.33
2019-05-17T05:37:35.402Z,21.00
2019-05-17T05:40:12.341Z,21.00
2019-05-17T05:42:43.407Z,20.67
2019-05-17T05:45:22.926Z,20.33
2019-05-17T05:47:55.045Z,20.67
2019-05-17T05:50:43.936Z,20.33
2019-05-17T05:53:35.008Z,18.00
2019-05-17T05:56:07.147Z,19.67
2019-05-17T05:59:37.808Z,22.33
2019-05-17T06:02:04.326Z,18.00
2019-05-17T06:04:34.288Z,21.00
2019-05-17T06:07:04.202Z,26.67
2019-05-17T06:09:34.159Z,22.67
2019-05-17T06:14:55.127Z,18.67
2019-05-17T06:17:24.980Z,22.00
2019-05-17T06:20:13.682Z,20.00
2019-05-17T06:22:46.950Z,20.33
2019-05-17T06:31:33.306Z,18.00
2019-05-17T06:34:15.793Z,20.00
2019-05-17T06:36:57.516Z,19.00
2019-05-17T06:45:41.671Z,20.33
2019-05-17T06:49:02.954Z,21.67
2019-05-17T06:51:05.702Z,17.67
2019-05-17T06:53:35.811Z,18.00
2019-05-17T06:56:05.633Z,14.33
2019-05-17T06:58:37.227Z,20.00
2019-05-17T07:01:26.120Z,17.00
2019-05-17T07:04:15.098Z,22.33
2019-05-17T07:09:27.731Z,19.00
2019-05-17T07:12:13.618Z,19.00
2019-05-17T07:14:52.389Z,20.67
2019-05-17T07:17:44.795Z,17.67
2019-05-17T07:20:14.643Z,17.67
2019-05-17T07:23:03.526Z,17.67
2019-05-17T07:25:33.384Z,20.00
2019-05-17T07:28:10.118Z,21.00
2019-05-17T07:30:59.606Z,15.33
2019-05-17T07:33:39.872Z,21.33
2019-05-17T07:36:30.664Z,19.33
2019-05-17T07:39:12.110Z,20.67
2019-05-17T07:41:50.859Z,22.67
2019-05-17T07:44:44.059Z,19.67
2019-05-17T07:47:25.827Z,20.67
2019-05-17T07:50:20.073Z,22.00
2019-05-17T07:56:19.984Z,19.67
2019-05-17T07:59:12.850Z,16.67
2019-05-17T08:01:42.692Z,18.00
2019-05-17T08:04:33.365Z,19.33
2019-05-17T08:07:03.214Z,18.00
2019-05-17T08:09:52.195Z,22.33
2019-05-17T08:12:41.247Z,23.00
2019-05-17T08:18:20.394Z,25.33
2019-05-17T08:21:10.495Z,18.67
2019-05-17T08:23:40.348Z,22.67
2019-05-17T08:26:10.715Z,23.00
2019-05-17T08:31:43.927Z,22.00
2019-05-17T08:34:13.907Z,20.33
2019-05-17T08:37:23.184Z,19.33
2019-05-17T08:40:15.026Z,20.67
2019-05-17T08:42:43.820Z,21.00
2019-05-17T08:45:31.890Z,20.33
2019-05-17T08:51:34.210Z,24.00
2019-05-17T08:57:26.106Z,26.00
2019-05-17T08:59:56.153Z,22.00
2019-05-17T09:05:47.235Z,27.00
2019-05-17T09:08:17.288Z,24.67
2019-05-17T09:11:00.212Z,28.00
2019-05-17T09:13:57.278Z,24.67
2019-05-17T09:16:52.799Z,32.33
2019-05-17T09:21:54.469Z,33.00
2019-05-17T09:25:03.789Z,27.33
2019-05-17T09:27:34.475Z,33.00
2019-05-17T09:30:25.700Z,36.00
2019-05-17T09:36:30.352Z,33.00
2019-05-17T09:42:33.645Z,26.33
2019-05-17T09:45:05.456Z,28.33
2019-05-17T09:53:36.376Z,30.50
2019-05-17T09:56:27.166Z,30.50
2019-05-17T10:05:20.176Z,26.75
2019-05-17T10:08:11.051Z,32.75
2019-05-17T10:11:08.610Z,30.00
2019-05-17T10:13:37.301Z,30.75
2019-05-17T10:16:10.187Z,28.00
2019-05-17T10:18:42.265Z,33.00
2019-05-17T10:21:46.075Z,34.33
2019-05-17T10:27:11.000Z,29.50
2019-05-17T10:29:31.088Z,28.00
2019-05-17T10:32:01.833Z,29.25
2019-05-17T10:34:32.500Z,30.25
2019-05-17T10:37:22.055Z,41.25
2019-05-17T10:40:37.115Z,29.00
2019-05-17T10:43:46.422Z,25.00
2019-05-17T10:47:30.051Z,28.50
2019-05-17T10:49:58.621Z,25.00
2019-05-17T10:53:13.391Z,26.33
2019-05-17T10:59:31.606Z,29.50
2019-05-17T11:02:22.464Z,29.33
2019-05-17T11:09:31.671Z,31.00
2019-05-17T11:15:10.958Z,27.75
2019-05-17T11:26:53.240Z,34.00
2019-05-17T11:29:35.881Z,24.00
2019-05-17T11:33:12.664Z,21.67
2019-05-17T11:54:03.432Z,18.00
2019-05-17T11:57:12.096Z,16.67
2019-05-17T12:03:10.394Z,14.00
2019-05-17T12:05:52.792Z,18.00
2019-05-17T12:11:57.404Z,16.67
2019-05-17T12:15:05.042Z,13.67
2019-05-17T12:18:11.396Z,15.33
2019-05-17T12:26:59.867Z,13.33
2019-05-17T12:30:05.364Z,10.00
2019-05-17T12:32:57.081Z,14.67
2019-05-17T12:36:07.986Z,13.67
2019-05-17T12:39:20.134Z,14.33
2019-05-17T12:48:52.477Z,13.33
2019-05-17T12:55:08.756Z,12.67
2019-05-17T13:01:36.313Z,13.00
2019-05-17T13:11:23.164Z,12.33
2019-05-17T13:17:59.241Z,13.00
2019-05-17T13:24:20.897Z,15.00
2019-05-17T13:34:27.322Z,15.67
2019-05-17T13:36:52.269Z,16.00
2019-05-17T13:39:45.497Z,17.00
2019-05-17T13:46:10.350Z,15.00
2019-05-17T13:48:58.365Z,17.67
2019-05-17T13:52:13.376Z,17.00
2019-05-17T13:55:16.246Z,17.00
2019-05-17T14:04:29.546Z,14.67
2019-05-17T14:07:24.475Z,15.00
2019-05-17T14:10:32.117Z,16.67
2019-05-17T14:13:41.448Z,17.67
2019-05-17T14:16:53.254Z,16.33
2019-05-17T14:23:27.524Z,17.67
2019-05-17T14:32:37.871Z,16.00
2019-05-17T14:48:27.428Z,17.33
2019-05-17T14:51:07.049Z,16.00
2019-05-17T14:54:39.121Z,17.00
2019-05-17T14:57:08.178Z,14.67
2019-05-17T15:00:15.223Z,15.67
2019-05-17T15:03:25.954Z,14.33
2019-05-17T15:22:20.456Z,17.67
2019-05-17T15:25:13.800Z,14.67
2019-05-17T15:28:02.553Z,14.00
2019-05-17T15:31:45.262Z,13.33
2019-05-17T15:34:37.104Z,14.33
2019-05-17T15:37:47.650Z,14.00
2019-05-17T15:40:29.861Z,10.00
2019-05-17T15:43:29.853Z,15.67
2019-05-17T15:47:13.175Z,12.33
2019-05-17T15:49:53.794Z,12.00
2019-05-17T15:56:21.690Z,10.00
2019-05-17T15:59:33.189Z,15.00
2019-05-17T16:06:01.207Z,15.67
2019-05-17T16:11:37.113Z,12.67
2019-05-17T16:26:44.988Z,12.33
2019-05-17T16:29:55.439Z,12.67
2019-05-17T16:36:00.308Z,13.33
2019-05-17T16:42:11.202Z,13.00
2019-05-17T16:45:09.969Z,14.67
2019-05-17T16:48:23.197Z,14.33
2019-05-17T16:51:25.248Z,14.00
2019-05-17T17:06:57.833Z,13.67
2019-05-17T17:13:32.379Z,11.00
2019-05-17T17:16:11.257Z,12.00
2019-05-17T17:22:24.654Z,13.00
2019-05-17T17:25:36.018Z,12.33
2019-05-17T17:32:21.794Z,14.00
2019-05-17T17:36:13.057Z,13.67
2019-05-17T17:48:19.129Z,13.67
2019-05-17T17:54:29.703Z,9.67
2019-05-17T18:00:58.036Z,12.33
2019-05-17T18:04:03.640Z,12.33
2019-05-17T18:10:13.704Z,11.67
2019-05-17T18:13:17.800Z,13.00
2019-05-17T18:16:23.569Z,12.33
2019-05-17T18:19:32.029Z,12.67
2019-05-17T18:22:43.503Z,13.00
2019-05-17T18:29:00.782Z,10.33
2019-05-17T18:32:40.116Z,14.33
2019-05-17T18:34:55.743Z,14.67
2019-05-17T18:40:53.519Z,12.00
2019-05-17T18:50:25.283Z,12.00
2019-05-17T18:53:30.431Z,11.67
2019-05-17T18:56:11.585Z,12.33
2019-05-17T19:02:03.590Z,14.33
2019-05-17T19:05:08.098Z,15.00
2019-05-17T19:08:05.761Z,16.67
2019-05-17T19:11:05.132Z,14.67
2019-05-17T19:29:35.093Z,12.33
2019-05-17T19:32:48.285Z,12.67
2019-05-17T19:36:04.169Z,12.25
2019-05-17T19:42:06.138Z,8.33
2019-05-17T19:45:01.009Z,12.25
2019-05-17T19:51:39.776Z,11.00
2019-05-17T19:54:34.418Z,10.00
2019-05-17T20:03:57.188Z,11.00
2019-05-17T20:07:04.662Z,11.67
2019-05-17T20:10:16.683Z,18.00
2019-05-17T20:12:53.746Z,10.33
2019-05-17T20:16:08.520Z,10.75
2019-05-17T20:23:37.141Z,13.67
2019-05-17T20:25:40.946Z,10.00
2019-05-17T20:34:52.162Z,10.00
2019-05-17T20:38:01.123Z,12.75
2019-05-17T20:41:04.103Z,13.00
2019-05-17T20:43:59.377Z,13.67
2019-05-17T20:56:57.111Z,12.33
2019-05-17T21:03:01.343Z,14.00
2019-05-17T21:08:46.170Z,15.67
2019-05-17T21:11:52.031Z,14.00
2019-05-17T21:18:02.020Z,15.00
2019-05-17T21:20:59.359Z,18.67
2019-05-17T21:26:47.646Z,19.33
2019-05-17T21:30:41.807Z,17.00
2019-05-17T21:38:19.733Z,16.67
2019-05-17T21:41:08.543Z,15.00
2019-05-17T21:52:03.256Z,14.33
2019-05-17T21:54:51.930Z,13.33
2019-05-17T21:57:43.040Z,15.00
2019-05-17T22:03:22.214Z,14.00
2019-05-17T22:06:29.910Z,16.33
2019-05-17T22:14:55.383Z,14.00
2019-05-17T22:17:44.373Z,15.00
2019-05-17T22:23:14.923Z,14.33
2019-05-17T22:26:03.895Z,13.67
2019-05-17T22:28:33.714Z,15.67
2019-05-17T22:34:00.056Z,16.00
2019-05-17T22:36:17.979Z,13.33
2019-05-17T22:44:17.783Z,13.33
2019-05-17T22:49:57.807Z,14.33
2019-05-17T22:53:07.912Z,16.00
2019-05-17T22:55:53.554Z,14.67
2019-05-17T22:58:43.940Z,17.33
2019-05-17T23:01:15.656Z,13.00
2019-05-17T23:06:44.832Z,17.67
2019-05-17T23:10:03.347Z,13.33
2019-05-17T23:12:33.198Z,15.00
2019-05-17T23:19:19.335Z,14.33
2019-05-17T23:22:14.619Z,14.00
2019-05-17T23:31:17.343Z,14.33
2019-05-17T23:33:47.275Z,14.00
2019-05-17T23:36:37.176Z,12.67
2019-05-17T23:39:12.487Z,11.33
2019-05-17T23:41:43.143Z,12.67
2019-05-17T23:44:32.975Z,13.00
2019-05-17T23:47:16.860Z,12.33
2019-05-17T23:49:57.920Z,13.00
2019-05-17T23:52:28.689Z,12.67
2019-05-17T23:55:00.734Z,14.33
2019-05-17T23:57:31.569Z,14.67
